Time;durP1;ratioP1;P1;durP2;ratioP2;P2;SDS_P1;SDS_P2;PMS_P1;PMS_P2;Temp;Humidity;BMP_temperature;BMP_pressure;BME280_temperature;BME280_humidity;BME280_pressure;Samples;Min_cycle;Max_cycle;Signal;HPM_P1;HPM_P2
2022/07/07 00:02:07;;;;;;;4.87;3.30;;;15.40;99.90;;;;;;5039348;28;20189;-71
2022/07/07 00:04:33;;;;;;;7.10;3.30;;;15.40;99.90;;;;;;5038990;28;20204;-71
2022/07/07 00:06:59;;;;;;;3.00;2.80;;;15.40;99.90;;;;;;5049888;28;20234;-72
2022/07/07 00:09:25;;;;;;;3.90;2.50;;;15.40;99.90;;;;;;5047737;28;20201;-70
2022/07/07 00:11:51;;;;;;;5.50;3.27;;;15.40;99.90;;;;;;5045772;28;20813;-70
2022/07/07 00:14:16;;;;;;;3.63;3.33;;;15.40;99.90;;;;;;5044543;28;20440;-72
2022/07/07 00:16:42;;;;;;;5.63;3.30;;;15.40;99.90;;;;;;5053307;28;20205;-72
2022/07/07 00:19:08;;;;;;;5.30;2.83;;;15.30;99.90;;;;;;5052793;28;20224;-71
2022/07/07 00:21:33;;;;;;;5.57;3.60;;;15.60;99.90;;;;;;5043975;28;20647;-71
2022/07/07 00:23:59;;;;;;;4.27;3.13;;;15.60;99.90;;;;;;5045903;28;20182;-71
2022/07/07 00:26:24;;;;;;;4.33;3.60;;;15.50;99.90;;;;;;5041945;28;20301;-71
2022/07/07 00:28:50;;;;;;;4.23;3.60;;;15.60;99.90;;;;;;5035546;28;20202;-72
2022/07/07 00:31:16;;;;;;;4.03;3.40;;;15.60;99.90;;;;;;5038442;28;20182;-72
2022/07/07 00:33:41;;;;;;;4.50;3.70;;;15.50;99.90;;;;;;5044734;28;20210;-71
2022/07/07 00:36:07;;;;;;;4.07;3.40;;;15.40;99.90;;;;;;5048831;28;20651;-69
2022/07/07 00:38:34;;;;;;;4.30;3.97;;;15.40;99.90;;;;;;5036458;28;21000;-72
2022/07/07 00:41:00;;;;;;;3.50;3.17;;;15.30;99.90;;;;;;5046723;28;20181;-71
2022/07/07 00:43:26;;;;;;;3.50;3.20;;;15.30;99.90;;;;;;5044062;28;20437;-70
2022/07/07 00:45:51;;;;;;;3.10;2.90;;;15.30;99.90;;;;;;5048536;28;20435;-71
2022/07/07 00:48:21;;;;;;;4.23;3.53;;;15.30;99.90;;;;;;5042255;28;20190;-71
2022/07/07 00:50:48;;;;;;;5.50;3.70;;;15.30;99.90;;;;;;5040946;28;20197;-70
2022/07/07 00:53:15;;;;;;;4.00;3.13;;;15.30;99.90;;;;;;5040171;28;21023;-71
2022/07/07 00:55:41;;;;;;;5.63;3.43;;;15.30;99.90;;;;;;5038939;28;20451;-68
2022/07/07 00:58:06;;;;;;;5.30;3.50;;;15.30;99.90;;;;;;5045706;28;20464;-72
2022/07/07 01:00:32;;;;;;;4.37;3.63;;;15.30;99.90;;;;;;5046234;28;20227;-71
2022/07/07 01:02:58;;;;;;;3.30;3.00;;;15.30;99.90;;;;;;5041221;28;20181;-71
2022/07/07 01:05:24;;;;;;;3.67;3.23;;;15.30;99.90;;;;;;5042621;28;20654;-68
2022/07/07 01:07:53;;;;;;;6.10;5.07;;;15.30;99.90;;;;;;5038186;28;20202;-69
2022/07/07 01:10:19;;;;;;;4.30;3.40;;;15.30;99.90;;;;;;5038871;28;20173;-69
2022/07/07 01:12:45;;;;;;;7.10;3.50;;;15.20;99.90;;;;;;5048876;28;20458;-71
2022/07/07 01:15:12;;;;;;;3.97;3.67;;;15.30;99.90;;;;;;5047002;28;20184;-72
2022/07/07 01:17:39;;;;;;;6.03;3.80;;;15.40;99.90;;;;;;5049062;28;20219;-71
2022/07/07 01:20:07;;;;;;;3.93;3.43;;;15.50;99.90;;;;;;5040623;28;20460;-71
2022/07/07 01:22:35;;;;;;;4.13;3.30;;;15.50;99.90;;;;;;5050042;28;20431;-68
2022/07/07 01:25:01;;;;;;;5.23;3.00;;;15.50;99.90;;;;;;5036512;28;20429;-66
2022/07/07 01:27:27;;;;;;;4.07;3.50;;;15.50;99.90;;;;;;5035642;28;20435;-70
2022/07/07 01:29:54;;;;;;;4.80;3.60;;;15.50;99.90;;;;;;5047664;28;20464;-68
2022/07/07 01:32:21;;;;;;;6.40;3.30;;;15.50;99.90;;;;;;5048748;28;20208;-71
2022/07/07 01:34:48;;;;;;;5.60;4.10;;;15.40;99.90;;;;;;5046291;28;20527;-70
2022/07/07 01:37:14;;;;;;;3.43;3.17;;;15.40;99.90;;;;;;5043394;28;21115;-69
2022/07/07 01:39:41;;;;;;;3.50;3.07;;;15.50;99.90;;;;;;5039803;28;20597;-71
2022/07/07 01:42:08;;;;;;;3.30;3.10;;;15.50;99.90;;;;;;5050497;28;20941;-70
2022/07/07 01:44:35;;;;;;;3.30;3.10;;;15.50;99.90;;;;;;5039760;28;20462;-71
2022/07/07 01:47:02;;;;;;;5.30;3.20;;;15.50;99.90;;;;;;5046123;28;20444;-71
2022/07/07 01:49:29;;;;;;;4.13;3.73;;;15.50;99.90;;;;;;5037906;28;20982;-70
2022/07/07 01:51:56;;;;;;;4.40;3.97;;;15.50;99.90;;;;;;5049477;28;20478;-71
2022/07/07 01:54:22;;;;;;;3.37;3.07;;;15.40;99.90;;;;;;5048191;28;20436;-71
2022/07/07 01:56:47;;;;;;;4.40;3.17;;;15.50;99.90;;;;;;5044519;28;20465;-71
2022/07/07 01:59:13;;;;;;;6.90;3.73;;;15.50;99.90;;;;;;5042133;28;20490;-71
2022/07/07 02:01:39;;;;;;;7.17;3.80;;;15.60;99.90;;;;;;5049574;28;20170;-70
2022/07/07 02:04:05;;;;;;;3.90;3.60;;;15.50;99.90;;;;;;5046775;28;20279;-71
2022/07/07 02:06:31;;;;;;;5.57;4.00;;;15.50;99.90;;;;;;5043102;28;20660;-70
2022/07/07 02:08:56;;;;;;;3.00;2.80;;;15.40;99.90;;;;;;5036857;28;20476;-71
2022/07/07 02:11:22;;;;;;;3.63;3.33;;;15.50;99.90;;;;;;5038475;28;20444;-71
2022/07/07 02:13:51;;;;;;;3.97;3.57;;;15.50;99.90;;;;;;5039323;28;20187;-71
2022/07/07 02:16:19;;;;;;;5.90;3.50;;;15.50;99.90;;;;;;5038179;28;20206;-71
2022/07/07 02:18:46;;;;;;;3.57;3.03;;;15.50;99.90;;;;;;5041417;28;20460;-71
2022/07/07 02:21:12;;;;;;;5.70;3.07;;;15.50;99.90;;;;;;5042098;28;20797;-70
2022/07/07 02:23:40;;;;;;;2.83;2.63;;;15.50;99.90;;;;;;5050413;28;20438;-71
2022/07/07 02:26:05;;;;;;;3.63;3.33;;;15.50;99.90;;;;;;5044269;28;20816;-70
2022/07/07 02:28:31;;;;;;;3.40;3.20;;;15.60;99.90;;;;;;5040524;28;20459;-70
2022/07/07 02:30:58;;;;;;;4.57;3.00;;;15.60;99.90;;;;;;5038147;28;20189;-71
2022/07/07 02:33:24;;;;;;;2.90;2.70;;;15.50;99.90;;;;;;5043162;28;20182;-70
2022/07/07 02:35:50;;;;;;;3.30;3.10;;;15.60;99.90;;;;;;5051183;28;20436;-71
2022/07/07 02:38:16;;;;;;;2.90;2.70;;;15.60;99.90;;;;;;5045212;28;20474;-71
2022/07/07 02:40:42;;;;;;;3.73;3.03;;;15.60;99.90;;;;;;5041429;28;20432;-70
2022/07/07 02:43:12;;;;;;;3.33;2.80;;;15.60;99.90;;;;;;5049299;28;20182;-69
2022/07/07 02:45:41;;;;;;;7.20;3.13;;;15.60;99.90;;;;;;5038663;28;20514;-70
2022/07/07 02:48:08;;;;;;;3.43;3.07;;;15.60;99.90;;;;;;5036327;28;20460;-70
2022/07/07 02:50:34;;;;;;;5.37;3.10;;;15.50;99.90;;;;;;5044880;28;20436;-70
2022/07/07 02:52:59;;;;;;;3.13;2.93;;;15.50;99.90;;;;;;5034464;28;20451;-70
2022/07/07 02:55:25;;;;;;;4.20;3.60;;;15.50;99.90;;;;;;5047946;28;20182;-69
2022/07/07 02:57:51;;;;;;;4.53;3.47;;;15.50;99.90;;;;;;5045027;28;20206;-69
2022/07/07 03:00:17;;;;;;;3.60;3.40;;;15.50;99.90;;;;;;5036715;28;20184;-70
2022/07/07 03:02:43;;;;;;;3.40;3.10;;;15.50;99.90;;;;;;5044704;28;22190;-70
2022/07/07 03:05:08;;;;;;;3.70;3.43;;;15.50;99.90;;;;;;5047090;28;20456;-70
2022/07/07 03:07:34;;;;;;;6.30;3.30;;;15.50;99.90;;;;;;5038941;28;20440;-70
2022/07/07 03:09:59;;;;;;;5.07;3.33;;;15.50;99.90;;;;;;5049587;28;20208;-70
2022/07/07 03:12:25;;;;;;;3.53;3.20;;;15.50;99.90;;;;;;5041932;28;20185;-70
2022/07/07 03:14:50;;;;;;;3.87;3.47;;;15.40;99.90;;;;;;5043037;28;20213;-70
2022/07/07 03:17:16;;;;;;;4.83;3.20;;;15.50;99.90;;;;;;5040027;28;20206;-69
2022/07/07 03:19:42;;;;;;;3.40;3.20;;;15.40;99.90;;;;;;5040085;28;20193;-69
2022/07/07 03:22:07;;;;;;;2.87;2.67;;;15.50;99.90;;;;;;5048207;28;20231;-70
2022/07/07 03:24:33;;;;;;;4.37;3.17;;;15.40;99.90;;;;;;5043014;28;20224;-70
2022/07/07 03:26:59;;;;;;;2.70;2.50;;;15.40;99.90;;;;;;5036421;28;20568;-70
2022/07/07 03:29:25;;;;;;;5.40;3.33;;;15.40;99.90;;;;;;5038106;28;20284;-69
2022/07/07 03:31:51;;;;;;;3.73;3.10;;;15.40;99.90;;;;;;5047969;28;20440;-70
2022/07/07 03:34:17;;;;;;;2.83;2.63;;;15.40;99.90;;;;;;5049146;28;20439;-70
2022/07/07 03:36:42;;;;;;;5.47;2.60;;;15.50;99.90;;;;;;5048960;28;20629;-69
2022/07/07 03:39:08;;;;;;;2.97;2.67;;;15.50;99.90;;;;;;5039958;28;20194;-70
2022/07/07 03:41:33;;;;;;;5.40;2.90;;;15.40;99.90;;;;;;5047465;28;20169;-69
2022/07/07 03:43:59;;;;;;;4.33;3.10;;;15.50;99.90;;;;;;5048972;28;20548;-69
2022/07/07 03:46:24;;;;;;;5.00;2.87;;;15.50;99.90;;;;;;5045796;28;20556;-69
2022/07/07 03:48:50;;;;;;;3.17;2.73;;;15.60;99.90;;;;;;5052668;22;20219;-65
2022/07/07 03:51:16;;;;;;;3.27;3.07;;;15.70;99.90;;;;;;4992555;28;20514;-66
2022/07/07 03:53:41;;;;;;;2.90;2.67;;;15.70;99.90;;;;;;4990100;28;20569;-66
2022/07/07 03:56:07;;;;;;;3.47;3.27;;;15.70;99.90;;;;;;4990975;28;20263;-65
2022/07/07 03:58:33;;;;;;;4.53;3.23;;;15.80;99.90;;;;;;4987057;28;20649;-66
2022/07/07 04:00:59;;;;;;;4.40;2.93;;;15.80;99.90;;;;;;4972138;28;20180;-66
2022/07/07 04:03:25;;;;;;;4.30;3.03;;;15.80;99.90;;;;;;4971040;28;20172;-65
2022/07/07 04:05:51;;;;;;;2.70;2.43;;;15.80;99.90;;;;;;4969435;28;20880;-66
2022/07/07 04:08:16;;;;;;;4.03;2.70;;;15.90;99.90;;;;;;4972384;28;20199;-65
2022/07/07 04:10:42;;;;;;;2.80;2.63;;;15.90;99.90;;;;;;4971921;28;20225;-66
2022/07/07 04:13:08;;;;;;;2.90;2.70;;;16.00;99.90;;;;;;4971503;28;20188;-65
2022/07/07 04:15:34;;;;;;;2.27;2.17;;;16.00;99.90;;;;;;4972065;28;20191;-66
2022/07/07 04:18:00;;;;;;;2.73;2.53;;;16.10;99.90;;;;;;4970392;28;20203;-65
2022/07/07 04:20:26;;;;;;;2.83;2.60;;;16.10;99.90;;;;;;4970696;28;20478;-66
2022/07/07 04:22:51;;;;;;;4.40;2.53;;;16.10;99.90;;;;;;4971810;28;20930;-66
2022/07/07 04:25:18;;;;;;;4.50;2.70;;;16.10;99.90;;;;;;4968757;28;20172;-66
2022/07/07 04:27:44;;;;;;;3.93;3.63;;;16.10;99.90;;;;;;4971156;28;20179;-66
2022/07/07 04:30:10;;;;;;;3.10;2.90;;;16.10;99.90;;;;;;4973265;28;20829;-66
2022/07/07 04:32:36;;;;;;;3.60;3.40;;;16.10;99.90;;;;;;4972326;28;20196;-66
2022/07/07 04:35:02;;;;;;;4.17;2.93;;;16.10;99.90;;;;;;4970165;28;20447;-66
2022/07/07 04:37:27;;;;;;;3.37;3.07;;;16.10;99.90;;;;;;4970611;28;20200;-66
2022/07/07 04:39:53;;;;;;;2.90;2.70;;;16.10;99.90;;;;;;4969890;28;20666;-66
2022/07/07 04:42:18;;;;;;;2.90;2.47;;;16.10;99.90;;;;;;4970583;28;20199;-66
2022/07/07 04:44:44;;;;;;;3.13;2.77;;;16.10;99.90;;;;;;4969243;28;20218;-65
2022/07/07 04:47:09;;;;;;;3.43;2.70;;;16.20;99.90;;;;;;4970329;28;20227;-65
2022/07/07 04:49:35;;;;;;;3.33;3.03;;;16.20;99.90;;;;;;4973919;28;20230;-65
2022/07/07 04:52:00;;;;;;;2.90;2.60;;;16.20;99.90;;;;;;4970476;28;20195;-66
2022/07/07 04:54:26;;;;;;;4.90;3.00;;;16.30;99.90;;;;;;4971268;28;20284;-66
2022/07/07 04:56:51;;;;;;;3.20;2.90;;;16.30;99.90;;;;;;4968124;28;20200;-66
2022/07/07 04:59:17;;;;;;;3.30;3.00;;;16.20;99.90;;;;;;4966582;28;20204;-66
2022/07/07 05:01:42;;;;;;;2.83;2.37;;;16.30;99.90;;;;;;4966314;28;20177;-66
2022/07/07 05:04:08;;;;;;;2.50;2.30;;;16.20;99.90;;;;;;4965604;28;20227;-67
2022/07/07 05:06:33;;;;;;;2.73;2.33;;;16.30;99.90;;;;;;4967352;28;20375;-66
2022/07/07 05:08:59;;;;;;;3.13;2.57;;;16.50;99.90;;;;;;4963124;28;20732;-66
2022/07/07 05:11:24;;;;;;;3.23;2.93;;;16.70;99.90;;;;;;4969072;28;20184;-66
2022/07/07 05:13:50;;;;;;;2.80;2.60;;;17.00;99.90;;;;;;4967266;28;20233;-66
2022/07/07 05:16:15;;;;;;;3.87;3.27;;;17.20;99.90;;;;;;4971497;28;20184;-66
2022/07/07 05:18:41;;;;;;;4.20;2.17;;;17.40;99.90;;;;;;4965615;28;20192;-66
2022/07/07 05:21:06;;;;;;;3.13;2.83;;;17.60;99.90;;;;;;4969377;28;20646;-65
2022/07/07 05:23:32;;;;;;;2.80;2.70;;;17.80;99.90;;;;;;4967607;28;20200;-65
2022/07/07 05:25:57;;;;;;;3.10;2.73;;;17.90;99.90;;;;;;4967505;28;20267;-66
2022/07/07 05:28:23;;;;;;;3.67;2.57;;;17.90;99.90;;;;;;4967201;28;20232;-66
2022/07/07 05:30:48;;;;;;;3.00;2.60;;;17.90;99.90;;;;;;4972962;28;20212;-66
2022/07/07 05:33:14;;;;;;;3.20;2.90;;;18.10;99.90;;;;;;4971768;28;20191;-66
2022/07/07 05:35:40;;;;;;;5.20;2.90;;;18.20;99.90;;;;;;4969666;28;20193;-66
2022/07/07 05:38:06;;;;;;;3.23;2.93;;;18.40;99.90;;;;;;4967605;28;20196;-66
2022/07/07 05:40:31;;;;;;;2.90;2.67;;;18.40;99.90;;;;;;4968390;28;20179;-66
2022/07/07 05:42:57;;;;;;;3.70;3.20;;;18.40;99.90;;;;;;4967384;28;20184;-66
2022/07/07 05:45:23;;;;;;;3.80;3.13;;;18.50;99.90;;;;;;4967840;28;20237;-67
2022/07/07 05:47:48;;;;;;;3.80;3.00;;;18.70;99.90;;;;;;4961823;28;20451;-66
2022/07/07 05:50:14;;;;;;;3.97;2.53;;;19.10;99.90;;;;;;4961927;28;20216;-66
2022/07/07 05:52:39;;;;;;;3.93;2.37;;;19.50;99.90;;;;;;4970507;28;20191;-66
2022/07/07 05:55:07;;;;;;;4.27;2.90;;;19.80;99.90;;;;;;4974789;28;20274;-67
2022/07/07 05:57:32;;;;;;;4.93;3.80;;;19.90;99.40;;;;;;4971984;28;20215;-66
2022/07/07 05:59:58;;;;;;;4.03;3.20;;;20.00;98.50;;;;;;4971670;28;20453;-67
2022/07/07 06:02:23;;;;;;;11.13;3.77;;;20.00;97.90;;;;;;4967105;28;20184;-67
2022/07/07 06:04:49;;;;;;;3.57;3.27;;;19.90;98.00;;;;;;4974822;28;20176;-66
2022/07/07 06:07:14;;;;;;;2.90;2.70;;;20.20;98.10;;;;;;4972717;28;20188;-66
2022/07/07 06:09:41;;;;;;;2.60;2.40;;;20.40;97.00;;;;;;4973560;28;20196;-66
2022/07/07 06:12:07;;;;;;;2.50;2.27;;;20.50;96.60;;;;;;4969249;28;20551;-67
2022/07/07 06:14:33;;;;;;;3.60;3.13;;;20.60;96.40;;;;;;4972863;28;20451;-63
2022/07/07 06:16:59;;;;;;;4.40;2.70;;;20.60;95.90;;;;;;4970937;28;20211;-63
2022/07/07 06:19:24;;;;;;;2.97;2.30;;;20.50;96.30;;;;;;4972585;28;21001;-64
2022/07/07 06:21:50;;;;;;;3.57;2.70;;;20.50;96.30;;;;;;4972108;28;20231;-64
2022/07/07 06:24:15;;;;;;;3.40;2.90;;;20.50;96.10;;;;;;4973425;28;20204;-63
2022/07/07 06:26:41;;;;;;;3.70;3.40;;;20.40;95.70;;;;;;4971826;28;20589;-63
2022/07/07 06:29:06;;;;;;;5.03;3.17;;;20.20;96.10;;;;;;4970729;28;20918;-63
2022/07/07 06:31:32;;;;;;;5.67;3.20;;;20.20;96.50;;;;;;4971340;28;20202;-63
2022/07/07 06:33:57;;;;;;;3.93;2.73;;;20.30;96.30;;;;;;4972016;28;20311;-63
2022/07/07 06:36:23;;;;;;;2.70;2.50;;;20.40;95.80;;;;;;4973350;28;20192;-63
2022/07/07 06:38:48;;;;;;;5.10;3.60;;;20.70;96.00;;;;;;4971907;28;20231;-64
2022/07/07 06:41:14;;;;;;;2.93;2.30;;;21.10;95.40;;;;;;4970925;28;20194;-63
2022/07/07 06:43:40;;;;;;;7.00;2.77;;;21.20;94.40;;;;;;4973174;28;20224;-63
2022/07/07 06:46:05;;;;;;;2.97;2.63;;;21.30;94.20;;;;;;4969125;28;20181;-63
2022/07/07 06:48:31;;;;;;;3.73;2.60;;;21.10;94.30;;;;;;4971286;28;20215;-63
2022/07/07 06:50:56;;;;;;;3.70;3.30;;;21.00;94.20;;;;;;4973485;28;20192;-64
2022/07/07 06:53:22;;;;;;;2.97;2.70;;;21.20;94.20;;;;;;4970440;28;20224;-63
2022/07/07 06:55:47;;;;;;;4.67;3.03;;;21.20;94.10;;;;;;4970887;28;20198;-63
2022/07/07 06:58:13;;;;;;;5.93;3.10;;;20.90;94.50;;;;;;4971666;28;20613;-63
2022/07/07 07:00:39;;;;;;;2.73;2.53;;;21.10;94.30;;;;;;4970406;28;20176;-64
2022/07/07 07:03:05;;;;;;;5.00;3.03;;;21.50;94.30;;;;;;4971894;28;20176;-63
2022/07/07 07:05:30;;;;;;;5.73;2.97;;;21.80;93.90;;;;;;4971779;28;20961;-63
2022/07/07 07:07:56;;;;;;;3.03;2.80;;;22.10;93.40;;;;;;4972588;28;20506;-64
2022/07/07 07:10:21;;;;;;;3.70;3.40;;;22.00;93.10;;;;;;4971654;28;20267;-64
2022/07/07 07:12:47;;;;;;;7.10;3.67;;;22.10;92.20;;;;;;4968103;28;20195;-63
2022/07/07 07:15:12;;;;;;;2.30;2.13;;;22.00;92.50;;;;;;4971740;28;20267;-63
2022/07/07 07:17:38;;;;;;;6.37;2.90;;;21.80;92.70;;;;;;4970899;28;20218;-63
2022/07/07 07:20:05;;;;;;;4.17;3.77;;;22.00;93.10;;;;;;4969768;28;20595;-63
2022/07/07 07:22:37;;;;;;;4.40;3.87;;;22.20;92.70;;;;;;4971552;28;20172;-63
2022/07/07 07:25:04;;;;;;;5.90;3.30;;;22.40;93.20;;;;;;4971412;28;20490;-64
2022/07/07 07:27:29;;;;;;;7.47;4.90;;;22.60;92.00;;;;;;4971596;28;20466;-63
2022/07/07 07:29:55;;;;;;;8.40;5.37;;;22.50;92.70;;;;;;4971616;28;20980;-63
2022/07/07 07:32:20;;;;;;;5.23;3.17;;;22.30;92.60;;;;;;4970718;28;20244;-63
2022/07/07 07:34:46;;;;;;;3.40;2.70;;;21.90;93.10;;;;;;4972321;28;20195;-63
2022/07/07 07:37:11;;;;;;;2.70;2.50;;;22.10;93.20;;;;;;4970230;28;20207;-64
2022/07/07 07:39:37;;;;;;;4.17;2.60;;;22.40;92.80;;;;;;4965712;28;20208;-63
2022/07/07 07:42:03;;;;;;;3.33;2.83;;;22.40;92.40;;;;;;4972618;28;20168;-62
2022/07/07 07:47:13;;;;;;;4.67;2.97;;;22.60;92.20;;;;;;4968166;28;20201;-63
2022/07/07 07:49:38;;;;;;;2.97;2.80;;;22.40;91.90;;;;;;4968508;28;20475;-63
2022/07/07 07:52:04;;;;;;;3.97;3.50;;;22.20;92.40;;;;;;4969816;28;20254;-63
2022/07/07 07:54:29;;;;;;;3.20;2.60;;;22.20;92.70;;;;;;4969267;28;20192;-63
2022/07/07 07:56:55;;;;;;;13.33;4.93;;;22.20;92.30;;;;;;4969871;28;20196;-64
2022/07/07 07:59:20;;;;;;;3.20;3.00;;;22.20;92.60;;;;;;4971111;28;20211;-63
2022/07/07 08:01:46;;;;;;;5.97;2.87;;;22.00;93.10;;;;;;4969809;28;20187;-64
2022/07/07 08:04:11;;;;;;;3.63;3.03;;;22.00;93.40;;;;;;4973384;28;20183;-64
2022/07/07 08:06:37;;;;;;;3.40;3.10;;;21.80;93.30;;;;;;4971001;28;20190;-63
2022/07/07 08:09:03;;;;;;;4.70;3.47;;;21.80;93.80;;;;;;4973202;28;20228;-63
2022/07/07 08:11:28;;;;;;;6.13;4.83;;;21.50;94.20;;;;;;4970676;28;20184;-63
2022/07/07 08:13:54;;;;;;;4.37;3.77;;;21.50;94.40;;;;;;4966585;28;20684;-64
2022/07/07 08:16:19;;;;;;;4.47;4.17;;;21.40;94.70;;;;;;4968516;28;20177;-63
2022/07/07 08:18:45;;;;;;;3.97;3.73;;;21.00;95.00;;;;;;4968313;28;20298;-64
2022/07/07 08:21:10;;;;;;;3.70;3.30;;;20.70;95.40;;;;;;4970737;28;20180;-63
2022/07/07 08:23:36;;;;;;;6.60;4.33;;;20.60;96.00;;;;;;4971407;28;20189;-64
2022/07/07 08:26:01;;;;;;;4.70;3.63;;;20.70;96.30;;;;;;4973087;28;20180;-63
2022/07/07 08:28:26;;;;;;;4.50;3.57;;;20.60;96.20;;;;;;4970822;28;20211;-64
2022/07/07 08:30:52;;;;;;;4.03;3.33;;;20.70;96.40;;;;;;4972830;28;20545;-63
2022/07/07 08:33:17;;;;;;;3.87;3.40;;;20.70;96.70;;;;;;4966474;28;20185;-63
2022/07/07 08:35:43;;;;;;;4.70;3.87;;;20.70;97.00;;;;;;4970733;28;20207;-63
2022/07/07 08:38:09;;;;;;;7.77;4.30;;;20.60;97.00;;;;;;4970949;28;20248;-64
2022/07/07 08:40:34;;;;;;;4.10;2.80;;;20.90;97.20;;;;;;4969499;28;20572;-63
2022/07/07 08:43:00;;;;;;;4.10;3.80;;;21.10;96.30;;;;;;4971539;28;20657;-64
2022/07/07 08:45:26;;;;;;;5.50;3.80;;;21.40;96.20;;;;;;4968595;28;20192;-63
2022/07/07 08:47:51;;;;;;;3.23;2.93;;;21.50;96.30;;;;;;4971902;28;20467;-64
2022/07/07 08:50:17;;;;;;;6.20;3.70;;;21.80;95.90;;;;;;4969793;28;20228;-63
2022/07/07 08:52:45;;;;;;;5.10;3.57;;;22.10;95.70;;;;;;4971463;28;20203;-63
2022/07/07 08:55:15;;;;;;;4.13;3.73;;;22.30;95.10;;;;;;4970947;28;20447;-63
2022/07/07 08:57:42;;;;;;;4.27;3.93;;;22.50;95.10;;;;;;4970066;28;20463;-64
2022/07/07 09:00:08;;;;;;;3.80;3.50;;;22.70;95.10;;;;;;4968832;28;20540;-63
2022/07/07 09:02:33;;;;;;;4.13;3.70;;;23.30;95.20;;;;;;4971717;28;20471;-64
2022/07/07 09:04:59;;;;;;;5.77;4.20;;;23.90;94.20;;;;;;4969234;28;20444;-63
2022/07/07 09:07:44;;;;;;;5.43;5.00;;;24.20;93.20;;;;;;4969519;28;20197;-63
2022/07/07 09:10:10;;;;;;;11.83;4.37;;;23.90;93.40;;;;;;4970510;28;20212;-64
2022/07/07 09:12:35;;;;;;;4.17;3.77;;;24.10;93.40;;;;;;4968595;28;20458;-63
2022/07/07 09:15:04;;;;;;;4.03;3.73;;;24.50;93.20;;;;;;4969225;28;20190;-64
2022/07/07 09:17:32;;;;;;;6.07;3.03;;;24.60;93.20;;;;;;4969934;28;20279;-64
2022/07/07 09:20:06;;;;;;;3.87;3.47;;;25.00;92.30;;;;;;4965127;28;20459;-64
2022/07/07 09:22:50;;;;;;;3.53;3.23;;;25.40;91.90;;;;;;4970414;28;20510;-64
2022/07/07 09:25:21;;;;;;;5.87;4.50;;;25.90;91.60;;;;;;4965134;28;20440;-63
2022/07/07 09:28:02;;;;;;;7.60;4.27;;;25.10;91.10;;;;;;4968828;28;20477;-64
2022/07/07 09:30:45;;;;;;;3.73;3.37;;;24.30;92.20;;;;;;4969721;28;20459;-64
2022/07/07 09:33:19;;;;;;;3.13;2.83;;;23.80;93.40;;;;;;4971325;28;20466;-63
2022/07/07 09:38:32;;;;;;;5.40;4.90;;;22.70;95.00;;;;;;4966144;28;21004;-63
2022/07/07 09:41:08;;;;;;;9.10;3.00;;;22.60;96.10;;;;;;4969686;28;20490;-62
2022/07/07 09:43:46;;;;;;;3.07;2.30;;;22.40;97.10;;;;;;4970787;28;20450;-67
2022/07/07 09:46:21;;;;;;;3.03;2.83;;;22.10;97.90;;;;;;4967628;28;20435;-66
2022/07/07 09:48:48;;;;;;;4.20;3.13;;;21.70;98.70;;;;;;4968815;28;20482;-66
2022/07/07 09:51:36;;;;;;;8.13;3.00;;;21.40;99.80;;;;;;4969172;28;20443;-66
2022/07/07 09:54:07;;;;;;;3.03;2.67;;;21.30;99.90;;;;;;4968192;28;20456;-66
2022/07/07 09:56:36;;;;;;;4.60;3.30;;;21.30;99.90;;;;;;4966950;28;20537;-68
2022/07/07 09:59:08;;;;;;;5.57;2.60;;;21.40;99.90;;;;;;4969508;28;20451;-68
2022/07/07 10:01:39;;;;;;;3.00;2.70;;;21.40;99.90;;;;;;4970591;28;20925;-68
2022/07/07 10:04:07;;;;;;;4.70;2.73;;;21.60;99.90;;;;;;4969293;28;20440;-69
2022/07/07 10:06:36;;;;;;;2.23;2.13;;;21.70;99.90;;;;;;4967988;28;20956;-68
2022/07/07 10:09:11;;;;;;;4.10;3.80;;;21.80;99.90;;;;;;4966206;28;20540;-68
2022/07/07 10:11:42;;;;;;;7.10;4.37;;;21.80;99.80;;;;;;4970099;28;20465;-68
2022/07/07 10:14:11;;;;;;;3.30;3.00;;;21.80;99.90;;;;;;4971211;28;20436;-68
2022/07/07 10:16:37;;;;;;;3.20;3.00;;;22.00;99.70;;;;;;4966543;28;20436;-68
2022/07/07 10:19:03;;;;;;;3.43;3.13;;;22.10;99.20;;;;;;4967572;28;20554;-69
2022/07/07 10:21:29;;;;;;;3.73;3.50;;;22.20;99.20;;;;;;4966823;28;20571;-67
2022/07/07 10:23:55;;;;;;;3.17;2.90;;;22.50;98.50;;;;;;4961245;28;20200;-66
2022/07/07 10:26:38;;;;;;;4.03;3.77;;;22.50;98.10;;;;;;4966811;28;20443;-68
2022/07/07 10:29:06;;;;;;;5.00;3.63;;;23.20;97.00;;;;;;4968846;28;20546;-68
2022/07/07 10:31:32;;;;;;;3.27;3.00;;;23.70;96.30;;;;;;4969290;28;20590;-68
2022/07/07 10:34:10;;;;;;;4.33;3.20;;;23.80;96.00;;;;;;4970331;28;20542;-67
2022/07/07 10:36:51;;;;;;;3.60;3.30;;;24.00;95.20;;;;;;4968661;28;20184;-66
2022/07/07 10:39:22;;;;;;;5.33;3.60;;;23.90;95.20;;;;;;4968077;28;20542;-66
2022/07/07 10:42:11;;;;;;;4.90;3.33;;;23.50;95.80;;;;;;4970589;28;20439;-66
2022/07/07 10:44:38;;;;;;;3.03;2.83;;;23.40;95.60;;;;;;4972314;28;20920;-66
2022/07/07 10:47:13;;;;;;;6.13;4.10;;;22.90;96.20;;;;;;4974533;28;20443;-66
2022/07/07 10:49:40;;;;;;;3.60;3.10;;;22.80;96.40;;;;;;4965420;28;20478;-66
2022/07/07 10:52:13;;;;;;;2.73;2.53;;;23.00;96.60;;;;;;4970768;28;20482;-66
2022/07/07 10:54:40;;;;;;;4.23;3.73;;;23.10;96.30;;;;;;4969281;28;20514;-66
2022/07/07 10:57:10;;;;;;;3.60;2.70;;;23.00;96.40;;;;;;4971679;28;20494;-66
2022/07/07 11:00:01;;;;;;;5.13;3.00;;;22.80;97.10;;;;;;4967462;28;20809;-67
2022/07/07 11:02:30;;;;;;;9.27;3.67;;;22.70;96.60;;;;;;4977483;28;20500;-67
2022/07/07 11:04:57;;;;;;;3.83;3.40;;;22.20;97.50;;;;;;4973811;28;20478;-66
2022/07/07 11:07:28;;;;;;;3.10;2.90;;;22.10;98.00;;;;;;4973081;28;20443;-66
2022/07/07 11:10:10;;;;;;;8.93;3.13;;;22.00;98.40;;;;;;4971015;28;20459;-66
2022/07/07 11:12:51;;;;;;;3.23;2.93;;;22.00;98.70;;;;;;4969448;28;20467;-66
2022/07/07 11:15:24;;;;;;;3.70;3.40;;;22.10;99.90;;;;;;4972787;28;20450;-67
2022/07/07 11:18:11;;;;;;;3.40;3.20;;;21.70;99.90;;;;;;4973401;28;20553;-66
2022/07/07 11:20:52;;;;;;;3.07;2.87;;;21.40;99.90;;;;;;4973489;28;20435;-66
2022/07/07 11:23:17;;;;;;;2.97;2.77;;;21.10;99.90;;;;;;4967235;28;20443;-66
2022/07/07 11:25:46;;;;;;;2.63;2.43;;;21.20;99.90;;;;;;4972573;28;20436;-67
2022/07/07 11:28:12;;;;;;;3.63;3.13;;;21.40;99.90;;;;;;4970666;28;20184;-67
2022/07/07 11:30:41;;;;;;;2.73;2.57;;;21.80;99.90;;;;;;4972284;28;20455;-67
2022/07/07 11:33:07;;;;;;;2.87;2.40;;;21.90;99.90;;;;;;4971498;28;20192;-67
2022/07/07 11:35:39;;;;;;;3.23;2.73;;;22.00;99.90;;;;;;4974263;28;20439;-67
2022/07/07 11:38:07;;;;;;;3.57;3.27;;;22.10;99.90;;;;;;4972784;28;20478;-67
2022/07/07 11:40:33;;;;;;;2.63;2.40;;;22.10;99.90;;;;;;4971032;28;20443;-67
2022/07/07 11:43:01;;;;;;;3.03;2.83;;;22.20;99.90;;;;;;4970694;28;20495;-67
2022/07/07 11:45:29;;;;;;;2.57;2.30;;;22.50;99.90;;;;;;4971646;28;20191;-67
2022/07/07 11:48:02;;;;;;;2.50;2.37;;;22.80;99.90;;;;;;4969143;28;20867;-67
2022/07/07 11:50:31;;;;;;;2.90;2.57;;;22.60;99.70;;;;;;4970853;28;20471;-67
2022/07/07 11:53:01;;;;;;;2.97;2.50;;;22.60;99.90;;;;;;4972639;28;20845;-67
2022/07/07 11:55:27;;;;;;;2.67;2.47;;;22.50;99.90;;;;;;4972084;28;20474;-67
2022/07/07 11:57:56;;;;;;;2.23;2.13;;;22.10;99.90;;;;;;4970508;28;20527;-67
2022/07/07 12:00:27;;;;;;;3.50;3.20;;;21.80;99.90;;;;;;4969831;28;21039;-67
2022/07/07 12:02:55;;;;;;;5.53;5.13;;;22.00;99.90;;;;;;4968838;28;20475;-67
2022/07/07 12:05:22;;;;;;;3.37;3.07;;;21.90;99.90;;;;;;4969759;28;20505;-67
2022/07/07 12:08:02;;;;;;;5.77;3.13;;;22.00;99.90;;;;;;4970069;28;20431;-67
2022/07/07 12:10:35;;;;;;;4.87;3.17;;;22.40;99.90;;;;;;4969928;28;20454;-67
2022/07/07 12:13:04;;;;;;;3.97;3.27;;;22.50;99.50;;;;;;4964889;28;20494;-67
2022/07/07 12:15:34;;;;;;;4.47;3.30;;;22.40;98.90;;;;;;4971337;28;20444;-67
2022/07/07 12:18:02;;;;;;;9.43;3.67;;;22.10;99.20;;;;;;4969201;28;20471;-67
2022/07/07 12:20:27;;;;;;;7.43;4.30;;;21.80;99.80;;;;;;4969730;28;20459;-67
2022/07/07 12:22:55;;;;;;;3.40;2.70;;;21.80;99.90;;;;;;4968856;28;20443;-67
2022/07/07 12:25:23;;;;;;;6.30;3.67;;;21.60;99.90;;;;;;4968455;28;20191;-66
2022/07/07 12:27:57;;;;;;;3.90;2.80;;;21.50;99.90;;;;;;4969890;28;20454;-67
2022/07/07 12:30:25;;;;;;;3.20;2.80;;;21.60;99.90;;;;;;4970339;28;20455;-67
2022/07/07 12:32:51;;;;;;;3.73;3.50;;;21.70;99.90;;;;;;4985478;28;20443;-67
2022/07/07 12:35:39;;;;;;;3.23;2.93;;;21.80;99.90;;;;;;4972587;28;20435;-67
2022/07/07 12:38:08;;;;;;;3.80;3.10;;;21.80;99.90;;;;;;4972304;28;20466;-67
2022/07/07 12:40:40;;;;;;;3.90;3.00;;;21.80;99.70;;;;;;4972008;28;20475;-67
2022/07/07 12:43:07;;;;;;;3.10;2.80;;;21.80;99.80;;;;;;4972275;28;20427;-67
2022/07/07 12:45:32;;;;;;;6.17;3.13;;;21.80;99.60;;;;;;4973532;28;20420;-67
2022/07/07 12:47:58;;;;;;;3.30;2.90;;;21.70;99.30;;;;;;4972068;28;20443;-67
2022/07/07 12:50:25;;;;;;;3.60;3.30;;;21.60;99.70;;;;;;4971861;28;20331;-67
2022/07/07 12:53:05;;;;;;;3.60;3.30;;;21.40;99.90;;;;;;4973628;28;20553;-67